sensor_id;sensor_type;location;lat;lon;timestamp;P1;durP1;ratioP1;P2;durP2;ratioP2
37341;SDS011;58643;49.052;8.518;2022-10-31T05:32:06;15.23;;;7.82;;
37341;SDS011;58643;49.052;8.518;2022-10-31T05:34:32;19.35;;;9.20;;
37341;SDS011;58643;49.052;8.518;2022-10-31T05:36:57;21.98;;;9.05;;
37341;SDS011;58643;49.052;8.518;2022-10-31T05:39:23;18.23;;;8.48;;
37341;SDS011;58643;49.052;8.518;2022-10-31T05:41:48;14.85;;;8.73;;
37341;SDS011;58643;49.052;8.518;2022-10-31T05:44:14;22.98;;;9.50;;
37341;SDS011;58643;49.052;8.518;2022-10-31T05:46:39;20.98;;;7.50;;
37341;SDS011;58643;49.052;8.518;2022-10-31T05:49:05;11.88;;;6.40;;
37341;SDS011;58643;49.052;8.518;2022-10-31T05:51:31;17.23;;;7.88;;
37341;SDS011;58643;49.052;8.518;2022-10-31T05:53:56;14.02;;;6.60;;
37341;SDS011;58643;49.052;8.518;2022-10-31T05:56:22;14.88;;;6.72;;
37341;SDS011;58643;49.052;8.518;2022-10-31T05:58:47;15.23;;;7.43;;
37341;SDS011;58643;49.052;8.518;2022-10-31T06:01:13;19.58;;;6.50;;
37341;SDS011;58643;49.052;8.518;2022-10-31T06:03:38;16.20;;;6.03;;
37341;SDS011;58643;49.052;8.518;2022-10-31T06:06:04;12.10;;;5.95;;
37341;SDS011;58643;49.052;8.518;2022-10-31T06:08:30;13.07;;;5.53;;
37341;SDS011;58643;49.052;8.518;2022-10-31T06:10:55;9.45;;;5.53;;
37341;SDS011;58643;49.052;8.518;2022-10-31T06:13:21;11.95;;;6.38;;
37341;SDS011;58643;49.052;8.518;2022-10-31T06:15:46;11.27;;;5.50;;
37341;SDS011;58643;49.052;8.518;2022-10-31T06:18:12;13.25;;;5.88;;
37341;SDS011;58643;49.052;8.518;2022-10-31T06:20:38;16.35;;;5.68;;
37341;SDS011;58643;49.052;8.518;2022-10-31T06:23:03;12.98;;;7.40;;
37341;SDS011;58643;49.052;8.518;2022-10-31T06:25:29;18.35;;;8.02;;
37341;SDS011;58643;49.052;8.518;2022-10-31T06:27:55;13.68;;;7.03;;
37341;SDS011;58643;49.052;8.518;2022-10-31T06:30:21;19.30;;;9.15;;
37341;SDS011;58643;49.052;8.518;2022-10-31T06:32:47;27.88;;;13.73;;
37341;SDS011;58643;49.052;8.518;2022-10-31T06:35:12;28.60;;;13.70;;
37341;SDS011;58643;49.052;8.518;2022-10-31T06:37:38;21.45;;;10.57;;
37341;SDS011;58643;49.052;8.518;2022-10-31T06:40:04;18.60;;;8.75;;
37341;SDS011;58643;49.052;8.518;2022-10-31T06:42:30;16.38;;;7.50;;
37341;SDS011;58643;49.052;8.518;2022-10-31T06:44:55;17.35;;;8.27;;
37341;SDS011;58643;49.052;8.518;2022-10-31T06:47:21;15.68;;;7.25;;
37341;SDS011;58643;49.052;8.518;2022-10-31T06:49:46;18.85;;;7.95;;
37341;SDS011;58643;49.052;8.518;2022-10-31T06:52:12;15.98;;;7.13;;
37341;SDS011;58643;49.052;8.518;2022-10-31T06:54:37;14.65;;;5.95;;
37341;SDS011;58643;49.052;8.518;2022-10-31T06:57:03;15.63;;;6.05;;
37341;SDS011;58643;49.052;8.518;2022-10-31T06:59:28;10.00;;;6.03;;
37341;SDS011;58643;49.052;8.518;2022-10-31T07:01:54;10.80;;;6.00;;
37341;SDS011;58643;49.052;8.518;2022-10-31T07:04:20;15.65;;;5.32;;
37341;SDS011;58643;49.052;8.518;2022-10-31T07:06:45;12.02;;;5.75;;
37341;SDS011;58643;49.052;8.518;2022-10-31T07:09:11;15.65;;;6.55;;
37341;SDS011;58643;49.052;8.518;2022-10-31T07:11:36;11.85;;;5.50;;
37341;SDS011;58643;49.052;8.518;2022-10-31T07:14:02;9.65;;;5.85;;
37341;SDS011;58643;49.052;8.518;2022-10-31T07:16:28;14.23;;;6.07;;
37341;SDS011;58643;49.052;8.518;2022-10-31T07:18:53;11.00;;;5.53;;
37341;SDS011;58643;49.052;8.518;2022-10-31T07:21:19;8.85;;;5.50;;
37341;SDS011;58643;49.052;8.518;2022-10-31T07:23:46;8.82;;;4.70;;
37341;SDS011;58643;49.052;8.518;2022-10-31T07:26:13;11.63;;;5.13;;
37341;SDS011;58643;49.052;8.518;2022-10-31T07:28:39;9.18;;;5.07;;
37341;SDS011;58643;49.052;8.518;2022-10-31T07:31:04;19.55;;;4.75;;
37341;SDS011;58643;49.052;8.518;2022-10-31T07:33:30;10.95;;;5.10;;
37341;SDS011;58643;49.052;8.518;2022-10-31T07:35:56;13.93;;;4.93;;
37341;SDS011;58643;49.052;8.518;2022-10-31T07:38:21;14.85;;;4.82;;
37341;SDS011;58643;49.052;8.518;2022-10-31T07:40:51;12.23;;;4.47;;
37341;SDS011;58643;49.052;8.518;2022-10-31T07:43:17;21.58;;;5.38;;
37341;SDS011;58643;49.052;8.518;2022-10-31T07:45:43;12.82;;;5.32;;
37341;SDS011;58643;49.052;8.518;2022-10-31T07:48:13;11.90;;;4.55;;
37341;SDS011;58643;49.052;8.518;2022-10-31T07:50:39;8.73;;;4.53;;
37341;SDS011;58643;49.052;8.518;2022-10-31T07:53:11;9.73;;;4.47;;
37341;SDS011;58643;49.052;8.518;2022-10-31T07:55:38;9.35;;;4.85;;
37341;SDS011;58643;49.052;8.518;2022-10-31T07:58:08;12.90;;;5.47;;
37341;SDS011;58643;49.052;8.518;2022-10-31T08:00:41;11.60;;;4.35;;
37341;SDS011;58643;49.052;8.518;2022-10-31T08:03:12;9.60;;;3.90;;
37341;SDS011;58643;49.052;8.518;2022-10-31T08:05:39;10.07;;;3.97;;
37341;SDS011;58643;49.052;8.518;2022-10-31T08:08:11;12.85;;;3.95;;
37341;SDS011;58643;49.052;8.518;2022-10-31T08:10:37;13.13;;;4.07;;
37341;SDS011;58643;49.052;8.518;2022-10-31T08:13:04;10.02;;;4.78;;
37341;SDS011;58643;49.052;8.518;2022-10-31T08:15:31;14.43;;;5.40;;
37341;SDS011;58643;49.052;8.518;2022-10-31T08:17:58;7.72;;;4.28;;
37341;SDS011;58643;49.052;8.518;2022-10-31T08:20:24;13.15;;;4.30;;
37341;SDS011;58643;49.052;8.518;2022-10-31T08:22:56;11.88;;;4.13;;
37341;SDS011;58643;49.052;8.518;2022-10-31T08:25:24;8.98;;;3.90;;
37341;SDS011;58643;49.052;8.518;2022-10-31T08:27:54;8.75;;;4.00;;
37341;SDS011;58643;49.052;8.518;2022-10-31T08:30:21;8.13;;;4.55;;
37341;SDS011;58643;49.052;8.518;2022-10-31T08:32:50;5.90;;;4.05;;
37341;SDS011;58643;49.052;8.518;2022-10-31T08:35:23;9.77;;;4.07;;
37341;SDS011;58643;49.052;8.518;2022-10-31T08:37:52;9.68;;;4.40;;
37341;SDS011;58643;49.052;8.518;2022-10-31T08:40:19;7.78;;;4.45;;
37341;SDS011;58643;49.052;8.518;2022-10-31T08:42:44;11.18;;;4.20;;
37341;SDS011;58643;49.052;8.518;2022-10-31T08:45:10;10.48;;;4.32;;
37341;SDS011;58643;49.052;8.518;2022-10-31T08:47:35;11.80;;;4.13;;
37341;SDS011;58643;49.052;8.518;2022-10-31T08:50:01;10.10;;;3.88;;
37341;SDS011;58643;49.052;8.518;2022-10-31T08:52:27;13.43;;;3.70;;
37341;SDS011;58643;49.052;8.518;2022-10-31T08:54:52;9.25;;;3.53;;
37341;SDS011;58643;49.052;8.518;2022-10-31T08:57:18;6.82;;;3.70;;
37341;SDS011;58643;49.052;8.518;2022-10-31T08:59:43;9.02;;;3.90;;
37341;SDS011;58643;49.052;8.518;2022-10-31T09:02:09;8.27;;;3.58;;
37341;SDS011;58643;49.052;8.518;2022-10-31T09:04:34;8.27;;;3.83;;
37341;SDS011;58643;49.052;8.518;2022-10-31T09:07:00;10.15;;;4.07;;
37341;SDS011;58643;49.052;8.518;2022-10-31T09:09:25;9.32;;;3.97;;
37341;SDS011;58643;49.052;8.518;2022-10-31T09:11:51;7.10;;;3.55;;
37341;SDS011;58643;49.052;8.518;2022-10-31T09:14:17;9.10;;;3.50;;
37341;SDS011;58643;49.052;8.518;2022-10-31T09:16:42;11.35;;;3.75;;
37341;SDS011;58643;49.052;8.518;2022-10-31T09:19:08;8.13;;;3.78;;
37341;SDS011;58643;49.052;8.518;2022-10-31T09:21:33;11.43;;;3.88;;
37341;SDS011;58643;49.052;8.518;2022-10-31T09:23:59;7.93;;;3.67;;
37341;SDS011;58643;49.052;8.518;2022-10-31T09:26:24;9.07;;;3.97;;
37341;SDS011;58643;49.052;8.518;2022-10-31T09:28:50;12.30;;;3.97;;
37341;SDS011;58643;49.052;8.518;2022-10-31T09:31:15;16.60;;;3.80;;
37341;SDS011;58643;49.052;8.518;2022-10-31T09:33:41;14.27;;;4.05;;
37341;SDS011;58643;49.052;8.518;2022-10-31T09:36:07;9.98;;;3.90;;
37341;SDS011;58643;49.052;8.518;2022-10-31T09:38:32;13.93;;;3.78;;
37341;SDS011;58643;49.052;8.518;2022-10-31T09:43:48;7.72;;;4.20;;
37341;SDS011;58643;49.052;8.518;2022-10-31T09:46:28;17.90;;;3.55;;
37341;SDS011;58643;49.052;8.518;2022-10-31T09:49:26;19.05;;;3.90;;
37341;SDS011;58643;49.052;8.518;2022-10-31T09:52:00;10.07;;;3.60;;
37341;SDS011;58643;49.052;8.518;2022-10-31T09:57:18;11.73;;;4.18;;
37341;SDS011;58643;49.052;8.518;2022-10-31T09:59:49;5.60;;;3.53;;
37341;SDS011;58643;49.052;8.518;2022-10-31T10:02:23;8.27;;;3.55;;
37341;SDS011;58643;49.052;8.518;2022-10-31T10:05:10;7.85;;;3.85;;
37341;SDS011;58643;49.052;8.518;2022-10-31T10:07:45;10.15;;;3.17;;
37341;SDS011;58643;49.052;8.518;2022-10-31T10:10:24;16.15;;;3.45;;
37341;SDS011;58643;49.052;8.518;2022-10-31T10:26:30;15.63;;;5.03;;
37341;SDS011;58643;49.052;8.518;2022-10-31T10:29:03;10.50;;;4.57;;
37341;SDS011;58643;49.052;8.518;2022-10-31T10:31:37;13.10;;;4.55;;
37341;SDS011;58643;49.052;8.518;2022-10-31T10:36:42;11.60;;;4.22;;
37341;SDS011;58643;49.052;8.518;2022-10-31T10:39:22;9.95;;;4.00;;
37341;SDS011;58643;49.052;8.518;2022-10-31T10:41:51;14.82;;;4.18;;
37341;SDS011;58643;49.052;8.518;2022-10-31T10:44:40;12.88;;;4.10;;
37341;SDS011;58643;49.052;8.518;2022-10-31T10:47:31;7.20;;;4.22;;
37341;SDS011;58643;49.052;8.518;2022-10-31T10:50:09;12.50;;;4.60;;
37341;SDS011;58643;49.052;8.518;2022-10-31T10:52:49;9.00;;;4.60;;
37341;SDS011;58643;49.052;8.518;2022-10-31T10:55:37;10.70;;;4.55;;
37341;SDS011;58643;49.052;8.518;2022-10-31T10:58:15;11.77;;;5.65;;
37341;SDS011;58643;49.052;8.518;2022-10-31T11:00:42;13.60;;;6.32;;
37341;SDS011;58643;49.052;8.518;2022-10-31T11:03:11;12.25;;;5.25;;
37341;SDS011;58643;49.052;8.518;2022-10-31T11:05:48;13.48;;;4.75;;
37341;SDS011;58643;49.052;8.518;2022-10-31T11:08:30;10.77;;;5.70;;
37341;SDS011;58643;49.052;8.518;2022-10-31T11:13:27;8.60;;;4.45;;
37341;SDS011;58643;49.052;8.518;2022-10-31T11:15:55;7.15;;;4.78;;
37341;SDS011;58643;49.052;8.518;2022-10-31T11:18:25;11.98;;;5.05;;
37341;SDS011;58643;49.052;8.518;2022-10-31T11:20:54;12.20;;;4.47;;
37341;SDS011;58643;49.052;8.518;2022-10-31T11:23:23;12.02;;;4.97;;
37341;SDS011;58643;49.052;8.518;2022-10-31T11:25:51;8.65;;;4.50;;
37341;SDS011;58643;49.052;8.518;2022-10-31T11:28:26;8.60;;;4.43;;
